sensor_id;sensor_type;location;lat;lon;timestamp;P1;durP1;ratioP1;P2;durP2;ratioP2
75914;SDS011;64593;51.050;13.780;2023-02-07T07:08:29;15.40;;;7.00;;
75914;SDS011;64593;51.050;13.780;2023-02-07T07:13:30;27.80;;;11.45;;
75914;SDS011;64593;51.050;13.780;2023-02-07T07:18:57;22.98;;;9.32;;
75914;SDS011;64593;51.050;13.780;2023-02-07T07:24:01;10.57;;;5.78;;
75914;SDS011;64593;51.050;13.780;2023-02-07T07:29:02;20.20;;;8.73;;
75914;SDS011;64593;51.050;13.780;2023-02-07T07:34:07;12.68;;;5.13;;
75914;SDS011;64593;51.050;13.780;2023-02-07T07:39:13;25.05;;;10.90;;
75914;SDS011;64593;51.050;13.780;2023-02-07T07:44:17;16.63;;;7.18;;
75914;SDS011;64593;51.050;13.780;2023-02-07T07:49:20;16.65;;;7.03;;
75914;SDS011;64593;51.050;13.780;2023-02-07T07:54:22;25.58;;;10.30;;
75914;SDS011;64593;51.050;13.780;2023-02-07T07:59:27;17.95;;;8.63;;
75914;SDS011;64593;51.050;13.780;2023-02-07T08:04:32;24.65;;;11.52;;
75914;SDS011;64593;51.050;13.780;2023-02-07T08:09:34;34.42;;;12.60;;
75914;SDS011;64593;51.050;13.780;2023-02-07T08:14:39;14.88;;;7.07;;
75914;SDS011;64593;51.050;13.780;2023-02-07T08:19:41;12.05;;;6.65;;
75914;SDS011;64593;51.050;13.780;2023-02-07T08:24:45;20.48;;;10.43;;
75914;SDS011;64593;51.050;13.780;2023-02-07T08:29:52;20.85;;;10.90;;
75914;SDS011;64593;51.050;13.780;2023-02-07T08:34:59;20.65;;;9.68;;
75914;SDS011;64593;51.050;13.780;2023-02-07T08:40:07;14.80;;;7.55;;
75914;SDS011;64593;51.050;13.780;2023-02-07T08:45:09;23.13;;;10.40;;
75914;SDS011;64593;51.050;13.780;2023-02-07T08:50:11;8.02;;;4.10;;
75914;SDS011;64593;51.050;13.780;2023-02-07T08:55:14;9.90;;;5.10;;
75914;SDS011;64593;51.050;13.780;2023-02-07T09:00:16;20.92;;;7.85;;
75914;SDS011;64593;51.050;13.780;2023-02-07T09:05:19;18.52;;;6.80;;
75914;SDS011;64593;51.050;13.780;2023-02-07T09:10:21;24.55;;;9.00;;
75914;SDS011;64593;51.050;13.780;2023-02-07T09:15:23;16.88;;;8.18;;
75914;SDS011;64593;51.050;13.780;2023-02-07T09:20:25;25.52;;;10.93;;
75914;SDS011;64593;51.050;13.780;2023-02-07T09:25:29;31.48;;;14.70;;
75914;SDS011;64593;51.050;13.780;2023-02-07T09:30:41;32.67;;;15.00;;
75914;SDS011;64593;51.050;13.780;2023-02-07T09:35:47;18.05;;;7.13;;
75914;SDS011;64593;51.050;13.780;2023-02-07T09:40:53;11.02;;;4.05;;
75914;SDS011;64593;51.050;13.780;2023-02-07T09:45:56;29.13;;;13.32;;
75914;SDS011;64593;51.050;13.780;2023-02-07T09:51:07;23.65;;;8.73;;
75914;SDS011;64593;51.050;13.780;2023-02-07T09:56:10;15.32;;;6.43;;
75914;SDS011;64593;51.050;13.780;2023-02-07T10:01:20;26.00;;;12.60;;
75914;SDS011;64593;51.050;13.780;2023-02-07T10:06:28;27.52;;;10.88;;
75914;SDS011;64593;51.050;13.780;2023-02-07T10:33:23;28.88;;;14.05;;
75914;SDS011;64593;51.050;13.780;2023-02-07T10:43:55;33.22;;;13.38;;
75914;SDS011;64593;51.050;13.780;2023-02-07T10:49:02;28.98;;;14.02;;
75914;SDS011;64593;51.050;13.780;2023-02-07T10:54:49;33.10;;;13.55;;
75914;SDS011;64593;51.050;13.780;2023-02-07T11:00:07;35.17;;;15.13;;
75914;SDS011;64593;51.050;13.780;2023-02-07T11:05:31;31.73;;;14.75;;
75914;SDS011;64593;51.050;13.780;2023-02-07T11:16:37;15.13;;;8.23;;
75914;SDS011;64593;51.050;13.780;2023-02-07T11:21:44;31.02;;;14.07;;
75914;SDS011;64593;51.050;13.780;2023-02-07T11:32:22;21.17;;;9.57;;
75914;SDS011;64593;51.050;13.780;2023-02-07T11:42:30;28.48;;;14.52;;
75914;SDS011;64593;51.050;13.780;2023-02-07T11:47:58;23.42;;;10.18;;
75914;SDS011;64593;51.050;13.780;2023-02-07T11:53:00;26.80;;;12.93;;
75914;SDS011;64593;51.050;13.780;2023-02-07T11:58:07;26.85;;;13.50;;
75914;SDS011;64593;51.050;13.780;2023-02-07T12:03:20;26.48;;;13.45;;
75914;SDS011;64593;51.050;13.780;2023-02-07T12:08:51;27.77;;;11.80;;
75914;SDS011;64593;51.050;13.780;2023-02-07T12:24:37;23.65;;;12.55;;
75914;SDS011;64593;51.050;13.780;2023-02-07T12:30:16;27.00;;;13.90;;
75914;SDS011;64593;51.050;13.780;2023-02-07T12:35:37;26.40;;;13.48;;
75914;SDS011;64593;51.050;13.780;2023-02-07T12:41:18;11.15;;;6.43;;
75914;SDS011;64593;51.050;13.780;2023-02-07T12:52:33;27.55;;;13.57;;
75914;SDS011;64593;51.050;13.780;2023-02-07T13:09:26;33.53;;;14.57;;
75914;SDS011;64593;51.050;13.780;2023-02-07T13:21:24;26.63;;;14.52;;
75914;SDS011;64593;51.050;13.780;2023-02-07T13:26:32;24.13;;;12.50;;
75914;SDS011;64593;51.050;13.780;2023-02-07T13:36:52;24.95;;;11.88;;
75914;SDS011;64593;51.050;13.780;2023-02-07T13:42:22;29.80;;;12.15;;
75914;SDS011;64593;51.050;13.780;2023-02-07T14:04:21;26.27;;;13.20;;
75914;SDS011;64593;51.050;13.780;2023-02-07T14:14:39;17.85;;;9.02;;
75914;SDS011;64593;51.050;13.780;2023-02-07T14:26:01;20.65;;;10.20;;
75914;SDS011;64593;51.050;13.780;2023-02-07T14:31:50;30.45;;;13.90;;
75914;SDS011;64593;51.050;13.780;2023-02-07T14:43:05;34.88;;;17.38;;
75914;SDS011;64593;51.050;13.780;2023-02-07T14:53:39;27.65;;;14.40;;
75914;SDS011;64593;51.050;13.780;2023-02-07T14:58:43;31.58;;;16.58;;
75914;SDS011;64593;51.050;13.780;2023-02-07T15:03:45;34.13;;;14.65;;
75914;SDS011;64593;51.050;13.780;2023-02-07T15:08:56;33.22;;;13.00;;
75914;SDS011;64593;51.050;13.780;2023-02-07T15:19:38;30.38;;;13.90;;
75914;SDS011;64593;51.050;13.780;2023-02-07T15:24:41;29.90;;;16.35;;
75914;SDS011;64593;51.050;13.780;2023-02-07T15:30:17;37.95;;;16.88;;
75914;SDS011;64593;51.050;13.780;2023-02-07T15:35:24;34.50;;;17.35;;
75914;SDS011;64593;51.050;13.780;2023-02-07T15:40:52;30.88;;;15.43;;
75914;SDS011;64593;51.050;13.780;2023-02-07T15:46:02;27.95;;;14.57;;
75914;SDS011;64593;51.050;13.780;2023-02-07T15:51:35;28.33;;;14.95;;
75914;SDS011;64593;51.050;13.780;2023-02-07T15:57:09;29.75;;;16.00;;
75914;SDS011;64593;51.050;13.780;2023-02-07T16:02:22;31.35;;;15.55;;
75914;SDS011;64593;51.050;13.780;2023-02-07T16:07:35;32.15;;;15.52;;
75914;SDS011;64593;51.050;13.780;2023-02-07T16:12:47;33.92;;;17.17;;
75914;SDS011;64593;51.050;13.780;2023-02-07T16:17:53;34.78;;;18.02;;
75914;SDS011;64593;51.050;13.780;2023-02-07T16:23:20;36.65;;;18.20;;
75914;SDS011;64593;51.050;13.780;2023-02-07T16:28:22;34.60;;;17.08;;
75914;SDS011;64593;51.050;13.780;2023-02-07T16:40:29;34.85;;;15.18;;
75914;SDS011;64593;51.050;13.780;2023-02-07T16:52:18;38.97;;;17.85;;
75914;SDS011;64593;51.050;13.780;2023-02-07T17:05:17;39.28;;;18.25;;
75914;SDS011;64593;51.050;13.780;2023-02-07T17:11:04;39.25;;;19.17;;
75914;SDS011;64593;51.050;13.780;2023-02-07T17:17:10;40.13;;;18.40;;
75914;SDS011;64593;51.050;13.780;2023-02-07T17:22:17;35.53;;;16.77;;
75914;SDS011;64593;51.050;13.780;2023-02-07T17:27:44;38.70;;;19.08;;
75914;SDS011;64593;51.050;13.780;2023-02-07T17:32:46;37.15;;;19.13;;
75914;SDS011;64593;51.050;13.780;2023-02-07T17:38:12;35.97;;;19.05;;
75914;SDS011;64593;51.050;13.780;2023-02-07T17:43:46;44.80;;;20.38;;
75914;SDS011;64593;51.050;13.780;2023-02-07T17:48:48;41.97;;;19.45;;
75914;SDS011;64593;51.050;13.780;2023-02-07T17:53:52;42.60;;;20.05;;
75914;SDS011;64593;51.050;13.780;2023-02-07T17:59:22;38.58;;;19.63;;
75914;SDS011;64593;51.050;13.780;2023-02-07T18:04:25;45.83;;;20.25;;
75914;SDS011;64593;51.050;13.780;2023-02-07T18:09:27;40.40;;;19.63;;
75914;SDS011;64593;51.050;13.780;2023-02-07T18:14:28;37.90;;;20.23;;
75914;SDS011;64593;51.050;13.780;2023-02-07T18:19:30;41.45;;;19.95;;
75914;SDS011;64593;51.050;13.780;2023-02-07T18:24:33;44.13;;;21.95;;
75914;SDS011;64593;51.050;13.780;2023-02-07T18:29:35;45.03;;;21.45;;
75914;SDS011;64593;51.050;13.780;2023-02-07T18:34:37;46.80;;;22.60;;
75914;SDS011;64593;51.050;13.780;2023-02-07T18:40:06;40.90;;;21.00;;
75914;SDS011;64593;51.050;13.780;2023-02-07T18:45:08;49.45;;;22.35;;
75914;SDS011;64593;51.050;13.780;2023-02-07T18:50:11;46.92;;;24.27;;
75914;SDS011;64593;51.050;13.780;2023-02-07T18:55:38;41.35;;;21.55;;
75914;SDS011;64593;51.050;13.780;2023-02-07T19:00:40;48.33;;;24.63;;
75914;SDS011;64593;51.050;13.780;2023-02-07T19:06:09;44.28;;;22.25;;
75914;SDS011;64593;51.050;13.780;2023-02-07T19:11:36;39.83;;;21.05;;
75914;SDS011;64593;51.050;13.780;2023-02-07T19:16:39;50.67;;;25.63;;
75914;SDS011;64593;51.050;13.780;2023-02-07T19:21:41;48.78;;;22.75;;
75914;SDS011;64593;51.050;13.780;2023-02-07T19:26:43;50.90;;;23.67;;
75914;SDS011;64593;51.050;13.780;2023-02-07T19:32:10;53.72;;;25.63;;
75914;SDS011;64593;51.050;13.780;2023-02-07T19:37:39;54.05;;;24.27;;
75914;SDS011;64593;51.050;13.780;2023-02-07T19:42:41;55.78;;;26.60;;
75914;SDS011;64593;51.050;13.780;2023-02-07T19:48:10;64.13;;;27.65;;
75914;SDS011;64593;51.050;13.780;2023-02-07T19:53:12;56.80;;;27.55;;
75914;SDS011;64593;51.050;13.780;2023-02-07T19:58:16;56.10;;;27.00;;
75914;SDS011;64593;51.050;13.780;2023-02-07T20:03:43;57.50;;;25.42;;
75914;SDS011;64593;51.050;13.780;2023-02-07T20:08:51;52.28;;;26.02;;
75914;SDS011;64593;51.050;13.780;2023-02-07T20:13:53;51.20;;;24.83;;
75914;SDS011;64593;51.050;13.780;2023-02-07T20:18:57;47.90;;;26.20;;
75914;SDS011;64593;51.050;13.780;2023-02-07T20:23:59;59.50;;;26.65;;
75914;SDS011;64593;51.050;13.780;2023-02-07T20:29:03;59.25;;;26.52;;
75914;SDS011;64593;51.050;13.780;2023-02-07T20:34:17;58.10;;;27.10;;
75914;SDS011;64593;51.050;13.780;2023-02-07T20:39:20;58.60;;;28.50;;
75914;SDS011;64593;51.050;13.780;2023-02-07T20:44:50;52.53;;;26.23;;
75914;SDS011;64593;51.050;13.780;2023-02-07T20:49:52;57.97;;;26.52;;
75914;SDS011;64593;51.050;13.780;2023-02-07T20:54:54;50.95;;;24.52;;
75914;SDS011;64593;51.050;13.780;2023-02-07T21:00:22;53.53;;;23.98;;
75914;SDS011;64593;51.050;13.780;2023-02-07T21:05:23;54.42;;;24.40;;
75914;SDS011;64593;51.050;13.780;2023-02-07T21:10:50;50.72;;;25.08;;
75914;SDS011;64593;51.050;13.780;2023-02-07T21:16:17;53.70;;;26.42;;
75914;SDS011;64593;51.050;13.780;2023-02-07T21:21:45;59.50;;;27.48;;
75914;SDS011;64593;51.050;13.780;2023-02-07T21:26:47;60.33;;;27.85;;
75914;SDS011;64593;51.050;13.780;2023-02-07T21:31:50;57.53;;;26.10;;
75914;SDS011;64593;51.050;13.780;2023-02-07T21:36:52;47.17;;;21.63;;
75914;SDS011;64593;51.050;13.780;2023-02-07T21:41:54;50.08;;;25.20;;
75914;SDS011;64593;51.050;13.780;2023-02-07T21:47:22;54.63;;;24.20;;
75914;SDS011;64593;51.050;13.780;2023-02-07T21:52:48;21.77;;;11.77;;
75914;SDS011;64593;51.050;13.780;2023-02-07T21:58:15;45.03;;;21.65;;
75914;SDS011;64593;51.050;13.780;2023-02-07T22:03:45;52.97;;;25.45;;
75914;SDS011;64593;51.050;13.780;2023-02-07T22:09:14;51.08;;;24.20;;
75914;SDS011;64593;51.050;13.780;2023-02-07T22:14:19;14.77;;;5.97;;
75914;SDS011;64593;51.050;13.780;2023-02-07T22:19:47;42.55;;;19.10;;
75914;SDS011;64593;51.050;13.780;2023-02-07T22:24:50;59.53;;;29.13;;
75914;SDS011;64593;51.050;13.780;2023-02-07T22:29:53;68.07;;;26.67;;
75914;SDS011;64593;51.050;13.780;2023-02-07T22:35:20;75.38;;;32.20;;
75914;SDS011;64593;51.050;13.780;2023-02-07T22:40:47;57.95;;;26.02;;
75914;SDS011;64593;51.050;13.780;2023-02-07T22:46:15;67.55;;;29.42;;
75914;SDS011;64593;51.050;13.780;2023-02-07T22:51:43;54.97;;;26.70;;
75914;SDS011;64593;51.050;13.780;2023-02-07T22:57:11;19.48;;;11.77;;
75914;SDS011;64593;51.050;13.780;2023-02-07T23:07:21;49.38;;;21.85;;
75914;SDS011;64593;51.050;13.780;2023-02-07T23:12:23;62.08;;;26.60;;
